createdAt,value
2019-02-19T00:01:29.621Z,127.15
2019-02-19T00:03:58.081Z,136.88
2019-02-19T00:06:27.446Z,129.95
2019-02-19T00:08:56.826Z,127.65
2019-02-19T00:11:25.278Z,133.35
2019-02-19T00:13:53.651Z,125.07
2019-02-19T00:16:23.665Z,120.65
2019-02-19T00:18:52.079Z,133.10
2019-02-19T00:21:22.147Z,125.70
2019-02-19T00:23:50.558Z,128.50
2019-02-19T00:26:19.249Z,120.65
2019-02-19T00:28:47.737Z,133.35
2019-02-19T00:31:16.120Z,132.52
2019-02-19T00:33:44.535Z,135.37
2019-02-19T00:36:12.960Z,131.15
2019-02-19T00:38:41.344Z,133.37
2019-02-19T00:41:09.826Z,134.22
2019-02-19T00:43:38.223Z,132.63
2019-02-19T00:46:06.644Z,134.22
2019-02-19T00:48:35.033Z,131.10
2019-02-19T00:51:03.426Z,128.53
2019-02-19T00:53:31.846Z,134.30
2019-02-19T00:56:00.294Z,132.18
2019-02-19T00:58:28.678Z,141.47
2019-02-19T01:00:57.099Z,133.50
2019-02-19T01:03:25.506Z,131.25
2019-02-19T01:05:53.885Z,135.22
2019-02-19T01:08:22.317Z,131.47
2019-02-19T01:10:50.707Z,132.47
2019-02-19T01:13:19.096Z,130.93
2019-02-19T01:15:48.593Z,138.80
2019-02-19T01:18:23.434Z,130.55
2019-02-19T01:20:57.644Z,131.37
2019-02-19T01:23:26.459Z,131.67
2019-02-19T01:25:54.859Z,132.30
2019-02-19T01:28:23.294Z,137.00
2019-02-19T01:30:51.739Z,135.85
2019-02-19T01:33:29.716Z,133.03
2019-02-19T01:35:58.196Z,140.45
2019-02-19T01:38:26.578Z,135.00
2019-02-19T01:40:55.870Z,128.50
2019-02-19T01:43:24.282Z,128.07
2019-02-19T01:45:52.712Z,137.45
2019-02-19T01:48:21.097Z,125.53
2019-02-19T01:50:49.525Z,136.25
2019-02-19T01:53:17.939Z,139.68
2019-02-19T01:55:46.339Z,134.10
2019-02-19T01:58:14.746Z,135.43
2019-02-19T02:00:43.202Z,132.47
2019-02-19T02:03:11.594Z,143.97
2019-02-19T02:05:40.048Z,138.52
2019-02-19T02:08:08.428Z,139.75
2019-02-19T02:10:36.815Z,137.10
2019-02-19T02:13:07.579Z,139.92
2019-02-19T02:15:42.440Z,144.68
2019-02-19T02:18:06.149Z,147.57
2019-02-19T02:20:34.576Z,145.70
2019-02-19T02:23:03.948Z,142.43
2019-02-19T02:25:32.324Z,142.72
2019-02-19T02:28:00.752Z,142.35
2019-02-19T02:30:29.155Z,146.80
2019-02-19T02:32:57.531Z,150.72
2019-02-19T02:35:25.925Z,142.30
2019-02-19T02:37:54.320Z,143.57
2019-02-19T02:40:22.805Z,149.12
2019-02-19T02:42:51.177Z,146.93
2019-02-19T02:45:19.640Z,142.65
2019-02-19T02:47:48.033Z,147.75
2019-02-19T02:50:18.324Z,146.13
2019-02-19T02:52:47.886Z,147.20
2019-02-19T02:55:17.312Z,143.10
2019-02-19T02:57:45.694Z,142.32
2019-02-19T03:00:14.195Z,147.47
2019-02-19T03:02:44.524Z,141.12
2019-02-19T03:05:12.920Z,141.90
2019-02-19T03:07:45.829Z,144.77
2019-02-19T03:10:14.252Z,143.68
2019-02-19T03:12:42.654Z,157.27
2019-02-19T03:15:11.552Z,143.60
2019-02-19T03:17:39.944Z,148.57
2019-02-19T03:20:08.350Z,151.97
2019-02-19T03:22:36.780Z,152.62
2019-02-19T03:25:05.436Z,151.25
2019-02-19T03:27:33.836Z,149.62
2019-02-19T03:30:02.228Z,144.30
2019-02-19T03:32:30.677Z,153.72
2019-02-19T03:34:59.114Z,147.17
2019-02-19T03:37:27.516Z,145.92
2019-02-19T03:39:55.920Z,155.05
2019-02-19T03:42:24.355Z,145.62
2019-02-19T03:44:52.767Z,144.82
2019-02-19T03:47:27.129Z,140.75
2019-02-19T03:49:55.523Z,147.43
2019-02-19T03:52:24.236Z,154.82
2019-02-19T03:54:52.663Z,148.17
2019-02-19T03:57:21.058Z,139.52
2019-02-19T03:59:50.471Z,139.52
2019-02-19T04:02:18.904Z,153.90
2019-02-19T04:04:47.287Z,135.82
2019-02-19T04:07:15.984Z,144.87
2019-02-19T04:09:44.395Z,150.40
2019-02-19T04:12:12.853Z,147.05
2019-02-19T04:14:41.249Z,149.77
2019-02-19T04:17:09.709Z,141.32
2019-02-19T04:19:38.060Z,149.55
2019-02-19T04:22:08.092Z,143.28
2019-02-19T04:24:37.481Z,156.93
2019-02-19T04:27:05.923Z,156.90
2019-02-19T04:29:35.251Z,148.62
2019-02-19T04:32:03.637Z,154.80
2019-02-19T04:34:32.481Z,137.30
2019-02-19T04:37:00.856Z,155.90
2019-02-19T04:39:31.594Z,154.23
2019-02-19T04:42:00.967Z,148.97
2019-02-19T04:44:29.356Z,150.65
2019-02-19T04:46:59.723Z,155.80
2019-02-19T04:49:28.451Z,145.95
2019-02-19T04:51:56.853Z,154.85
2019-02-19T04:54:25.358Z,152.00
2019-02-19T04:56:54.075Z,155.57
2019-02-19T04:59:22.470Z,146.62
2019-02-19T05:01:50.912Z,158.87
2019-02-19T05:04:19.291Z,153.87
2019-02-19T05:06:47.700Z,154.23
2019-02-19T05:09:16.132Z,153.40
2019-02-19T05:11:45.471Z,154.40
2019-02-19T05:14:13.867Z,159.12
2019-02-19T05:16:42.311Z,149.82
2019-02-19T05:19:10.724Z,151.95
2019-02-19T05:21:39.213Z,154.60
2019-02-19T05:24:07.674Z,159.30
2019-02-19T05:26:36.068Z,154.12
2019-02-19T05:29:04.458Z,149.93
2019-02-19T05:31:32.904Z,151.55
2019-02-19T05:34:01.289Z,143.80
2019-02-19T05:36:29.694Z,151.47
2019-02-19T05:38:58.109Z,155.87
2019-02-19T05:41:26.517Z,151.05
2019-02-19T05:43:54.889Z,157.07
2019-02-19T05:46:23.312Z,152.75
2019-02-19T05:48:51.748Z,158.25
2019-02-19T05:51:20.201Z,158.70
2019-02-19T05:53:48.575Z,158.72
2019-02-19T05:56:16.961Z,155.80
2019-02-19T05:58:45.387Z,157.20
2019-02-19T06:01:13.771Z,154.42
2019-02-19T06:03:42.204Z,164.20
2019-02-19T06:06:11.533Z,155.30
2019-02-19T06:08:40.900Z,154.70
2019-02-19T06:11:12.450Z,153.45
2019-02-19T06:13:40.883Z,156.37
2019-02-19T06:16:09.307Z,154.05
2019-02-19T06:18:37.686Z,155.55
2019-02-19T06:21:06.119Z,166.80
2019-02-19T06:23:34.535Z,144.15
2019-02-19T06:26:02.983Z,134.78
2019-02-19T06:28:31.494Z,149.70
2019-02-19T06:30:59.883Z,146.60
2019-02-19T06:33:28.270Z,151.63
2019-02-19T06:35:56.692Z,148.82
2019-02-19T06:38:25.193Z,148.10
2019-02-19T06:40:53.560Z,148.40
2019-02-19T06:43:22.507Z,146.10
2019-02-19T06:45:50.939Z,145.72
2019-02-19T06:48:19.357Z,150.72
2019-02-19T06:50:48.786Z,140.97
2019-02-19T06:53:17.186Z,138.37
2019-02-19T06:55:45.580Z,136.32
2019-02-19T06:58:20.841Z,147.45
2019-02-19T07:00:49.252Z,138.92
2019-02-19T07:03:19.314Z,139.43
2019-02-19T07:05:47.694Z,133.67
2019-02-19T07:08:16.162Z,126.27
2019-02-19T07:10:44.547Z,138.95
2019-02-19T07:13:12.947Z,131.45
2019-02-19T07:15:41.334Z,131.82
2019-02-19T07:18:09.872Z,136.18
2019-02-19T07:20:38.289Z,124.55
2019-02-19T07:23:06.714Z,115.37
2019-02-19T07:25:35.177Z,113.08
2019-02-19T07:28:05.647Z,128.00
2019-02-19T07:30:34.136Z,119.55
2019-02-19T07:33:03.489Z,116.90
2019-02-19T07:35:31.843Z,128.12
2019-02-19T07:38:02.182Z,116.90
2019-02-19T07:40:30.592Z,100.67
2019-02-19T07:42:59.147Z,105.27
2019-02-19T07:45:28.530Z,99.17
2019-02-19T07:47:56.935Z,97.82
2019-02-19T07:50:26.745Z,94.15
2019-02-19T07:52:55.147Z,94.67
2019-02-19T07:55:30.249Z,95.42
2019-02-19T07:57:58.699Z,93.58
2019-02-19T08:00:27.434Z,95.87
2019-02-19T08:02:55.862Z,88.40
2019-02-19T08:05:24.364Z,84.05
2019-02-19T08:07:52.861Z,87.42
2019-02-19T08:10:21.621Z,95.55
2019-02-19T08:12:50.005Z,91.92
2019-02-19T08:15:18.437Z,88.45
2019-02-19T08:17:46.891Z,82.85
2019-02-19T08:20:16.321Z,83.45
2019-02-19T08:22:44.948Z,76.15
2019-02-19T08:25:14.375Z,78.60
2019-02-19T08:27:42.852Z,78.52
2019-02-19T08:30:11.341Z,78.42
2019-02-19T08:32:39.759Z,72.20
2019-02-19T08:35:08.180Z,74.03
2019-02-19T08:37:36.998Z,76.50
2019-02-19T08:40:07.908Z,72.42
2019-02-19T08:42:36.381Z,65.87
2019-02-19T08:45:06.390Z,66.45
2019-02-19T08:47:42.261Z,60.75
2019-02-19T08:50:06.863Z,57.78
2019-02-19T08:52:35.260Z,57.15
2019-02-19T08:55:03.705Z,51.90
2019-02-19T08:57:32.146Z,53.90
2019-02-19T09:00:00.538Z,57.98
2019-02-19T09:02:28.935Z,55.48
2019-02-19T09:04:57.388Z,60.38
2019-02-19T09:07:25.771Z,48.90
2019-02-19T09:09:54.160Z,57.60
2019-02-19T09:12:22.945Z,56.73
2019-02-19T09:14:51.333Z,54.40
2019-02-19T09:17:19.730Z,55.30
2019-02-19T09:19:48.146Z,50.67
2019-02-19T09:22:16.570Z,45.85
2019-02-19T09:24:45.864Z,44.38
2019-02-19T09:27:14.679Z,46.45
2019-02-19T09:29:43.115Z,47.93
2019-02-19T09:32:11.839Z,49.85
2019-02-19T09:34:40.222Z,43.40
2019-02-19T09:37:08.654Z,43.15
2019-02-19T09:39:37.062Z,48.30
2019-02-19T09:42:05.464Z,43.05
2019-02-19T09:44:33.856Z,44.08
2019-02-19T09:47:02.297Z,43.98
2019-02-19T09:49:30.706Z,41.05
2019-02-19T09:51:59.099Z,52.48
2019-02-19T09:54:27.613Z,47.95
2019-02-19T09:56:55.988Z,43.52
2019-02-19T09:59:24.407Z,43.10
2019-02-19T10:01:52.820Z,37.60
2019-02-19T10:04:21.222Z,39.48
2019-02-19T10:06:49.626Z,39.40
2019-02-19T10:09:18.084Z,40.35
2019-02-19T10:11:46.493Z,40.28
2019-02-19T10:14:14.875Z,40.38
2019-02-19T10:16:43.267Z,40.80
2019-02-19T10:19:11.755Z,39.67
2019-02-19T10:21:40.157Z,42.55
2019-02-19T10:24:08.720Z,39.92
2019-02-19T10:26:37.142Z,39.78
2019-02-19T10:29:05.587Z,35.73
2019-02-19T10:31:34.440Z,39.75
2019-02-19T10:34:02.843Z,38.20
2019-02-19T10:36:31.230Z,40.88
2019-02-19T10:38:59.665Z,36.85
2019-02-19T10:41:28.075Z,39.18
2019-02-19T10:43:56.476Z,37.40
2019-02-19T10:46:24.872Z,35.33
2019-02-19T10:48:53.318Z,39.30
2019-02-19T10:51:21.745Z,36.88
2019-02-19T10:53:50.454Z,36.53
2019-02-19T10:56:18.871Z,34.65
2019-02-19T10:58:47.352Z,36.10
2019-02-19T11:01:15.917Z,36.05
2019-02-19T11:03:44.335Z,37.48
2019-02-19T11:06:12.761Z,37.93
2019-02-19T11:08:41.194Z,54.18
2019-02-19T11:11:09.606Z,39.53
2019-02-19T11:13:38.001Z,35.52
2019-02-19T11:16:06.724Z,39.48
2019-02-19T11:18:35.114Z,35.83
2019-02-19T11:21:03.513Z,40.30
2019-02-19T11:23:33.678Z,39.25
2019-02-19T11:26:02.171Z,39.75
2019-02-19T11:28:30.516Z,38.53
2019-02-19T11:30:58.944Z,39.80
2019-02-19T11:33:27.347Z,36.40
2019-02-19T11:35:55.760Z,43.60
2019-02-19T11:38:24.208Z,37.65
2019-02-19T11:40:52.657Z,39.95
2019-02-19T11:43:21.055Z,39.25
2019-02-19T11:45:49.477Z,35.70
2019-02-19T11:48:19.157Z,47.70
2019-02-19T11:50:47.685Z,36.20
2019-02-19T11:53:16.099Z,39.92
2019-02-19T11:55:44.508Z,36.73
2019-02-19T11:58:12.944Z,37.80
2019-02-19T12:00:43.200Z,39.53
2019-02-19T12:03:11.620Z,38.63
2019-02-19T12:05:40.025Z,41.68
2019-02-19T12:08:08.453Z,40.50
2019-02-19T12:10:36.875Z,39.92
2019-02-19T12:13:05.289Z,38.40
2019-02-19T12:15:35.449Z,38.42
2019-02-19T12:18:03.752Z,36.93
2019-02-19T12:20:32.160Z,35.40
2019-02-19T12:23:00.541Z,33.58
2019-02-19T12:25:29.265Z,37.30
2019-02-19T12:27:57.643Z,32.35
2019-02-19T12:30:26.073Z,42.50
2019-02-19T12:32:54.463Z,37.93
2019-02-19T12:35:22.854Z,34.45
2019-02-19T12:37:51.308Z,32.67
2019-02-19T12:40:19.708Z,37.55
2019-02-19T12:42:48.158Z,38.70
2019-02-19T12:45:16.573Z,35.92
2019-02-19T12:47:44.985Z,35.95
2019-02-19T12:50:18.213Z,41.60
2019-02-19T12:52:46.631Z,38.53
2019-02-19T12:55:15.059Z,33.58
2019-02-19T12:57:43.766Z,38.45
2019-02-19T13:00:19.562Z,36.85
2019-02-19T13:02:47.958Z,38.23
2019-02-19T13:05:16.820Z,37.50
2019-02-19T13:07:46.990Z,35.03
2019-02-19T13:10:15.280Z,33.78
2019-02-19T13:12:43.687Z,33.20
2019-02-19T13:15:14.417Z,32.45
2019-02-19T13:17:42.827Z,38.55
2019-02-19T13:20:14.621Z,36.30
2019-02-19T13:22:43.045Z,35.88
2019-02-19T13:25:12.058Z,36.85
2019-02-19T13:27:40.775Z,37.45
2019-02-19T13:30:22.220Z,40.33
2019-02-19T13:32:50.604Z,38.28
2019-02-19T13:35:19.013Z,35.58
2019-02-19T13:37:47.410Z,43.30
2019-02-19T13:40:18.747Z,40.30
2019-02-19T13:42:48.141Z,34.78
2019-02-19T13:45:16.512Z,39.40
2019-02-19T13:47:45.056Z,38.05
2019-02-19T13:50:22.132Z,33.20
2019-02-19T13:52:52.220Z,34.05
2019-02-19T13:55:22.273Z,29.77
2019-02-19T13:57:50.655Z,28.17
2019-02-19T14:00:20.785Z,28.10
2019-02-19T14:02:49.217Z,32.60
2019-02-19T14:05:17.616Z,30.88
2019-02-19T14:07:46.034Z,33.55
2019-02-19T14:10:14.434Z,32.05
2019-02-19T14:12:42.827Z,30.82
2019-02-19T14:15:30.434Z,29.07
2019-02-19T14:17:59.548Z,29.37
2019-02-19T14:20:29.591Z,35.48
2019-02-19T14:22:59.648Z,31.40
2019-02-19T14:25:35.628Z,37.28
2019-02-19T14:28:22.117Z,34.03
2019-02-19T14:30:52.204Z,35.38
2019-02-19T14:33:28.232Z,34.03
2019-02-19T14:36:01.016Z,34.53
2019-02-19T14:38:40.094Z,40.05
2019-02-19T14:41:10.173Z,33.18
2019-02-19T14:43:40.208Z,32.95
2019-02-19T14:46:18.976Z,33.13
2019-02-19T14:49:05.123Z,36.60
2019-02-19T14:51:51.705Z,32.88
2019-02-19T14:54:33.885Z,37.23
2019-02-19T14:57:06.588Z,33.23
2019-02-19T14:59:39.244Z,31.62
2019-02-19T15:02:09.272Z,37.45
2019-02-19T15:04:39.375Z,35.25
2019-02-19T15:07:18.780Z,36.35
2019-02-19T15:09:57.529Z,34.83
2019-02-19T15:12:42.561Z,37.80
2019-02-19T15:15:31.000Z,39.03
2019-02-19T15:18:12.996Z,41.42
2019-02-19T15:20:48.812Z,35.90
2019-02-19T15:23:35.084Z,42.88
2019-02-19T15:26:11.021Z,36.42
2019-02-19T15:28:41.038Z,38.15
2019-02-19T15:31:29.340Z,39.70
2019-02-19T15:34:11.688Z,39.90
2019-02-19T15:36:42.037Z,43.05
2019-02-19T15:39:24.078Z,41.35
2019-02-19T15:41:56.884Z,40.70
2019-02-19T15:44:26.925Z,38.98
2019-02-19T15:47:06.424Z,42.25
2019-02-19T15:49:51.377Z,42.13
2019-02-19T15:52:21.854Z,49.08
2019-02-19T15:54:57.583Z,43.28
2019-02-19T15:57:39.715Z,45.95
2019-02-19T16:00:27.080Z,43.75
2019-02-19T16:02:57.136Z,43.10
2019-02-19T16:05:39.286Z,52.45
2019-02-19T16:08:24.668Z,45.52
2019-02-19T16:11:06.541Z,43.87
2019-02-19T16:13:48.851Z,44.57
2019-02-19T16:16:24.834Z,45.43
2019-02-19T16:19:00.929Z,46.05
2019-02-19T16:21:34.100Z,43.10
2019-02-19T16:24:04.168Z,49.03
2019-02-19T16:26:34.203Z,46.37
2019-02-19T16:29:07.073Z,56.70
2019-02-19T16:31:40.135Z,49.10
2019-02-19T16:34:26.386Z,46.13
2019-02-19T16:36:59.211Z,45.73
2019-02-19T16:39:35.324Z,48.55
2019-02-19T16:42:08.629Z,47.17
2019-02-19T16:44:41.563Z,48.58
2019-02-19T16:47:11.608Z,46.58
2019-02-19T16:49:47.428Z,45.38
2019-02-19T16:52:23.305Z,47.20
2019-02-19T16:54:53.358Z,43.13
2019-02-19T16:57:26.407Z,45.98
2019-02-19T16:59:56.463Z,49.05
2019-02-19T17:02:42.800Z,48.95
2019-02-19T17:05:27.732Z,46.85
2019-02-19T17:07:58.145Z,48.75
2019-02-19T17:10:31.042Z,45.45
2019-02-19T17:13:01.143Z,49.77
2019-02-19T17:15:34.296Z,47.10
2019-02-19T17:18:04.318Z,48.65
2019-02-19T17:20:40.488Z,49.58
2019-02-19T17:23:26.677Z,56.70
2019-02-19T17:26:06.833Z,44.25
2019-02-19T17:28:39.607Z,48.98
2019-02-19T17:31:09.648Z,50.92
2019-02-19T17:33:41.649Z,46.25
2019-02-19T17:36:23.664Z,47.83
2019-02-19T17:38:53.749Z,45.12
2019-02-19T17:41:33.047Z,46.60
2019-02-19T17:44:11.992Z,45.75
2019-02-19T17:46:42.063Z,46.83
2019-02-19T17:49:12.114Z,49.00
2019-02-19T17:51:45.141Z,46.00
2019-02-19T17:54:18.728Z,49.23
2019-02-19T17:56:51.538Z,46.63
2019-02-19T17:59:24.530Z,54.53
2019-02-19T18:02:11.099Z,46.70
2019-02-19T18:04:41.135Z,52.93
2019-02-19T18:07:20.131Z,53.68
2019-02-19T18:10:05.468Z,49.05
2019-02-19T18:12:41.293Z,52.43
2019-02-19T18:15:14.279Z,48.68
2019-02-19T18:18:01.065Z,52.70
2019-02-19T18:20:29.470Z,51.18
2019-02-19T18:22:57.867Z,55.55
2019-02-19T18:25:26.277Z,52.45
2019-02-19T18:27:54.681Z,50.08
2019-02-19T18:30:23.123Z,53.00
2019-02-19T18:32:52.859Z,55.55
2019-02-19T18:35:23.000Z,52.25
2019-02-19T18:37:52.356Z,54.83
2019-02-19T18:40:20.796Z,55.23
2019-02-19T18:42:50.354Z,57.98
2019-02-19T18:45:19.713Z,52.20
2019-02-19T18:47:48.118Z,51.45
2019-02-19T18:50:16.526Z,54.33
2019-02-19T18:52:45.923Z,53.30
2019-02-19T18:55:15.297Z,51.92
2019-02-19T18:57:44.444Z,55.60
2019-02-19T19:00:13.423Z,57.83
2019-02-19T19:02:42.763Z,52.83
2019-02-19T19:05:11.156Z,53.58
2019-02-19T19:07:39.568Z,53.63
2019-02-19T19:10:10.339Z,61.28
2019-02-19T19:12:38.724Z,53.52
2019-02-19T19:15:11.522Z,56.53
2019-02-19T19:17:39.941Z,59.15
2019-02-19T19:20:10.593Z,55.65
2019-02-19T19:22:38.987Z,56.92
2019-02-19T19:25:07.894Z,55.90
2019-02-19T19:27:36.296Z,51.85
2019-02-19T19:30:07.956Z,48.60
2019-02-19T19:32:36.418Z,48.73
2019-02-19T19:35:06.940Z,46.95
2019-02-19T19:37:35.359Z,48.42
2019-02-19T19:40:04.745Z,49.42
2019-02-19T19:42:33.125Z,52.33
2019-02-19T19:45:01.566Z,55.48
2019-02-19T19:47:30.008Z,59.20
2019-02-19T19:49:58.392Z,56.45
2019-02-19T19:52:26.778Z,60.15
2019-02-19T19:54:55.178Z,61.98
2019-02-19T19:57:23.739Z,63.90
2019-02-19T19:59:52.189Z,61.08
2019-02-19T20:02:20.572Z,59.03
2019-02-19T20:04:48.980Z,57.62
2019-02-19T20:07:17.451Z,58.17
2019-02-19T20:09:45.956Z,58.73
2019-02-19T20:12:14.362Z,55.85
2019-02-19T20:14:42.750Z,55.98
2019-02-19T20:17:11.160Z,51.48
2019-02-19T20:19:39.596Z,54.55
2019-02-19T20:22:07.976Z,51.80
2019-02-19T20:24:36.425Z,55.35
2019-02-19T20:27:04.890Z,48.15
2019-02-19T20:29:34.280Z,49.88
2019-02-19T20:32:02.808Z,55.95
2019-02-19T20:34:31.142Z,49.63
2019-02-19T20:36:59.548Z,51.65
2019-02-19T20:39:27.987Z,49.98
2019-02-19T20:41:56.366Z,48.65
2019-02-19T20:44:24.803Z,50.83
2019-02-19T20:46:53.223Z,43.78
2019-02-19T20:49:21.688Z,42.17
2019-02-19T20:51:50.060Z,39.60
2019-02-19T20:54:18.458Z,43.28
2019-02-19T20:56:47.226Z,43.80
2019-02-19T20:59:15.649Z,41.70
2019-02-19T21:01:44.036Z,40.25
2019-02-19T21:04:12.462Z,38.83
2019-02-19T21:06:40.881Z,52.15
2019-02-19T21:09:09.372Z,39.83
2019-02-19T21:11:38.103Z,42.80
2019-02-19T21:14:06.503Z,40.35
2019-02-19T21:16:34.924Z,40.48
2019-02-19T21:19:04.930Z,39.05
2019-02-19T21:21:33.539Z,43.80
2019-02-19T21:24:01.952Z,44.95
2019-02-19T21:26:32.061Z,40.92
2019-02-19T21:29:00.541Z,40.58
2019-02-19T21:31:29.021Z,41.73
2019-02-19T21:33:57.409Z,41.92
2019-02-19T21:36:26.158Z,42.38
2019-02-19T21:38:54.810Z,40.45
2019-02-19T21:41:23.160Z,43.55
2019-02-19T21:43:51.902Z,44.00
2019-02-19T21:46:20.301Z,43.63
2019-02-19T21:48:50.070Z,43.90
2019-02-19T21:51:18.551Z,42.95
2019-02-19T21:53:47.067Z,41.02
2019-02-19T21:56:15.471Z,42.20
2019-02-19T21:58:43.845Z,41.65
2019-02-19T22:01:12.301Z,43.75
2019-02-19T22:03:40.702Z,42.73
2019-02-19T22:06:09.091Z,44.20
2019-02-19T22:08:37.515Z,43.30
2019-02-19T22:11:06.077Z,44.25
2019-02-19T22:13:34.475Z,45.12
2019-02-19T22:16:02.861Z,43.33
2019-02-19T22:18:31.308Z,52.40
2019-02-19T22:21:04.633Z,46.42
2019-02-19T22:23:33.034Z,51.55
2019-02-19T22:26:01.520Z,47.70
2019-02-19T22:28:29.909Z,47.78
2019-02-19T22:30:59.276Z,43.75
2019-02-19T22:33:27.747Z,43.50
2019-02-19T22:35:56.159Z,45.65
2019-02-19T22:38:24.627Z,44.58
2019-02-19T22:40:55.247Z,49.15
2019-02-19T22:43:23.100Z,43.05
2019-02-19T22:45:51.511Z,47.27
2019-02-19T22:48:20.247Z,45.63
2019-02-19T22:50:48.978Z,48.30
2019-02-19T22:53:35.171Z,54.45
2019-02-19T22:56:05.262Z,46.05
2019-02-19T22:58:33.651Z,46.00
2019-02-19T23:01:07.659Z,47.75
2019-02-19T23:03:36.103Z,49.40
2019-02-19T23:06:04.488Z,51.08
2019-02-19T23:08:32.892Z,50.00
2019-02-19T23:11:01.351Z,52.80
2019-02-19T23:13:29.732Z,55.23
2019-02-19T23:15:58.130Z,47.75
2019-02-19T23:18:26.615Z,51.80
2019-02-19T23:20:55.061Z,53.60
2019-02-19T23:23:23.464Z,56.40
2019-02-19T23:25:51.861Z,50.92
2019-02-19T23:28:20.328Z,50.60
2019-02-19T23:30:48.714Z,51.20
2019-02-19T23:33:17.109Z,52.65
2019-02-19T23:36:05.272Z,51.40
2019-02-19T23:38:33.756Z,54.67
2019-02-19T23:41:03.078Z,50.10
2019-02-19T23:43:31.463Z,44.30
2019-02-19T23:45:59.864Z,49.90
2019-02-19T23:48:28.279Z,47.15
2019-02-19T23:50:56.765Z,47.13
2019-02-19T23:53:25.622Z,48.17
2019-02-19T23:55:54.044Z,47.38
2019-02-19T23:58:22.450Z,44.70
